Hlavní strana
METAR-TAF:

METAR-TAF

Letiště :

Trent Lott International Airport

Pascagoula, Mississippi, Spojené státy americké

zeměpisná šířka: 30-27-49N, zeměpisná délka: 088-31-55W, výška: 5 m

Aktuální stav počasí

Zpráva byla vytvořena před 8 minutami, v 18:53 UTC
Severní vítr 15 kt s nárazy do 19 kt
Teplota 18°C
Vlhkost vzduchu 28%
Tlak 1020 hPa
Viditelnost: 16.1 km
Jasno

METAR: KPQL 151853Z 36015G19KT 10SM CLR 18/M01 A3013 RMK AO2 SLP203 T01831006

Čas: 13:01 (19:01 UTC)


TAF: chybějící

Stav a předpovědi počasí z více než 4 000 letišť (zprávy METAR a TAF).

Červené a žluté tečky na mapě představují dostupné meteorologické stanice.

Když kurzor umístíte na tečku, zobrazí se název stanice.

Pak kliknutím zobrazíte stav a předpověď počasí.

Chcete-li změnit mapu, kliknutím na zelené tlačítko se znaménkem +mapu přiblížíte, kliknutím na zelené tlačítko se znaménkem – mapu oddálíte a kliknutím na zelené šipky přejdete na sousední mapy.


METAR-TAF: